sensor_id;sensor_type;location;lat;lon;timestamp;pressure;altitude;pressure_sealevel;temperature;humidity
65716;BME280;63484;52.054;8.518;2022-12-24T00:02:05;99440.53;;;10.76;98.71
65716;BME280;63484;52.054;8.518;2022-12-24T00:07:05;99440.88;;;10.82;96.76
65716;BME280;63484;52.054;8.518;2022-12-24T00:12:06;99431.31;;;10.81;97.13
65716;BME280;63484;52.054;8.518;2022-12-24T00:17:06;99456.19;;;10.77;96.40
65716;BME280;63484;52.054;8.518;2022-12-24T00:22:07;99452.97;;;10.74;96.89
65716;BME280;63484;52.054;8.518;2022-12-24T00:27:07;99461.75;;;10.63;98.45
65716;BME280;63484;52.054;8.518;2022-12-24T00:32:08;99467.47;;;10.57;97.97
65716;BME280;63484;52.054;8.518;2022-12-24T00:37:09;99476.78;;;10.61;96.87
65716;BME280;63484;52.054;8.518;2022-12-24T00:42:09;99477.59;;;10.62;97.06
65716;BME280;63484;52.054;8.518;2022-12-24T00:47:09;99473.94;;;10.53;96.58
65716;BME280;63484;52.054;8.518;2022-12-24T00:52:10;99480.38;;;10.49;97.26
65716;BME280;63484;52.054;8.518;2022-12-24T00:57:10;99495.91;;;10.52;96.67
65716;BME280;63484;52.054;8.518;2022-12-24T01:02:10;99519.06;;;10.47;96.17
65716;BME280;63484;52.054;8.518;2022-12-24T01:07:11;99522.91;;;10.43;96.50
65716;BME280;63484;52.054;8.518;2022-12-24T01:12:11;99520.75;;;10.48;95.89
65716;BME280;63484;52.054;8.518;2022-12-24T01:17:11;99527.91;;;10.46;95.83
65716;BME280;63484;52.054;8.518;2022-12-24T01:22:12;99547.16;;;10.36;96.74
65716;BME280;63484;52.054;8.518;2022-12-24T01:27:12;99556.34;;;10.41;97.39
65716;BME280;63484;52.054;8.518;2022-12-24T01:32:12;99560.88;;;10.28;97.44
65716;BME280;63484;52.054;8.518;2022-12-24T01:37:13;99564.94;;;10.21;98.64
65716;BME280;63484;52.054;8.518;2022-12-24T01:42:22;99561.00;;;10.27;97.81
65716;BME280;63484;52.054;8.518;2022-12-24T01:47:40;99570.19;;;10.21;96.59
65716;BME280;63484;52.054;8.518;2022-12-24T01:52:41;99582.84;;;10.27;95.56
65716;BME280;63484;52.054;8.518;2022-12-24T01:57:45;99592.88;;;10.22;95.71
65716;BME280;63484;52.054;8.518;2022-12-24T02:02:48;99597.66;;;10.28;95.63
65716;BME280;63484;52.054;8.518;2022-12-24T02:07:50;99609.84;;;10.29;94.79
65716;BME280;63484;52.054;8.518;2022-12-24T02:12:51;99616.75;;;10.30;94.65
65716;BME280;63484;52.054;8.518;2022-12-24T02:28:35;99642.31;;;10.28;93.45
65716;BME280;63484;52.054;8.518;2022-12-24T02:33:53;99654.03;;;10.35;93.57
65716;BME280;63484;52.054;8.518;2022-12-24T02:39:02;99645.78;;;10.29;93.88
65716;BME280;63484;52.054;8.518;2022-12-24T02:44:03;99671.06;;;10.19;93.87
65716;BME280;63484;52.054;8.518;2022-12-24T02:49:04;99670.22;;;10.18;93.63
65716;BME280;63484;52.054;8.518;2022-12-24T02:54:05;99669.16;;;10.21;93.09
65716;BME280;63484;52.054;8.518;2022-12-24T02:59:31;99679.78;;;10.19;93.48
65716;BME280;63484;52.054;8.518;2022-12-24T03:09:51;99705.44;;;10.16;93.88
65716;BME280;63484;52.054;8.518;2022-12-24T03:14:52;99714.88;;;10.18;93.48
65716;BME280;63484;52.054;8.518;2022-12-24T03:19:53;99729.94;;;10.16;93.05
65716;BME280;63484;52.054;8.518;2022-12-24T03:24:54;99738.06;;;10.24;92.47
65716;BME280;63484;52.054;8.518;2022-12-24T03:29:55;99740.94;;;10.21;92.80
65716;BME280;63484;52.054;8.518;2022-12-24T03:34:55;99762.38;;;10.15;92.96
65716;BME280;63484;52.054;8.518;2022-12-24T03:39:56;99753.56;;;10.16;91.87
65716;BME280;63484;52.054;8.518;2022-12-24T03:44:56;99761.22;;;10.19;91.80
65716;BME280;63484;52.054;8.518;2022-12-24T03:49:56;99772.75;;;10.17;91.36
65716;BME280;63484;52.054;8.518;2022-12-24T03:54:57;99764.06;;;10.16;91.02
65716;BME280;63484;52.054;8.518;2022-12-24T03:59:57;99766.09;;;10.13;91.23
65716;BME280;63484;52.054;8.518;2022-12-24T04:04:57;99775.84;;;10.11;91.51
65716;BME280;63484;52.054;8.518;2022-12-24T04:09:57;99782.88;;;10.10;91.67
65716;BME280;63484;52.054;8.518;2022-12-24T04:14:58;99775.72;;;10.12;91.21
65716;BME280;63484;52.054;8.518;2022-12-24T04:19:58;99793.78;;;10.17;90.77
65716;BME280;63484;52.054;8.518;2022-12-24T04:24:58;99794.41;;;10.20;90.50
65716;BME280;63484;52.054;8.518;2022-12-24T04:29:59;99816.72;;;10.02;91.87
65716;BME280;63484;52.054;8.518;2022-12-24T04:34:59;99817.91;;;10.22;89.92
65716;BME280;63484;52.054;8.518;2022-12-24T04:39:59;99819.75;;;10.09;90.14
65716;BME280;63484;52.054;8.518;2022-12-24T04:45:00;99817.88;;;10.11;90.13
65716;BME280;63484;52.054;8.518;2022-12-24T04:50:00;99835.25;;;9.88;90.53
65716;BME280;63484;52.054;8.518;2022-12-24T04:55:01;99844.19;;;9.86;90.71
65716;BME280;63484;52.054;8.518;2022-12-24T05:00:03;99843.56;;;9.82;91.48
65716;BME280;63484;52.054;8.518;2022-12-24T05:05:03;99838.59;;;9.90;90.63
65716;BME280;63484;52.054;8.518;2022-12-24T05:10:04;99849.34;;;9.87;89.65
65716;BME280;63484;52.054;8.518;2022-12-24T05:15:05;99847.31;;;9.91;89.32
65716;BME280;63484;52.054;8.518;2022-12-24T05:20:06;99863.09;;;9.78;90.17
65716;BME280;63484;52.054;8.518;2022-12-24T05:25:08;99859.84;;;9.74;90.65
65716;BME280;63484;52.054;8.518;2022-12-24T05:30:27;99884.81;;;9.80;90.16
65716;BME280;63484;52.054;8.518;2022-12-24T05:35:27;99868.84;;;9.83;89.91
65716;BME280;63484;52.054;8.518;2022-12-24T05:40:27;99872.22;;;9.85;89.81
65716;BME280;63484;52.054;8.518;2022-12-24T05:45:28;99895.31;;;9.80;90.59
65716;BME280;63484;52.054;8.518;2022-12-24T05:50:28;99894.06;;;9.73;90.54
65716;BME280;63484;52.054;8.518;2022-12-24T05:55:38;99913.63;;;9.69;90.75
65716;BME280;63484;52.054;8.518;2022-12-24T06:00:38;99900.69;;;9.78;90.68
65716;BME280;63484;52.054;8.518;2022-12-24T06:05:39;99909.06;;;9.71;90.30
65716;BME280;63484;52.054;8.518;2022-12-24T06:10:40;99920.31;;;9.73;90.44
65716;BME280;63484;52.054;8.518;2022-12-24T06:15:40;99931.03;;;9.57;91.16
65716;BME280;63484;52.054;8.518;2022-12-24T06:20:41;99934.09;;;9.64;90.93
65716;BME280;63484;52.054;8.518;2022-12-24T06:25:41;99924.13;;;9.69;90.87
65716;BME280;63484;52.054;8.518;2022-12-24T06:30:46;99929.38;;;9.69;91.26
65716;BME280;63484;52.054;8.518;2022-12-24T06:35:47;99935.25;;;9.72;91.24
65716;BME280;63484;52.054;8.518;2022-12-24T06:40:47;99945.31;;;9.66;91.92
65716;BME280;63484;52.054;8.518;2022-12-24T06:45:47;99941.84;;;9.65;92.18
65716;BME280;63484;52.054;8.518;2022-12-24T06:50:48;99949.94;;;9.75;92.37
65716;BME280;63484;52.054;8.518;2022-12-24T06:55:48;99950.88;;;9.61;93.16
65716;BME280;63484;52.054;8.518;2022-12-24T07:00:48;99950.47;;;9.67;92.98
65716;BME280;63484;52.054;8.518;2022-12-24T07:05:49;99967.13;;;9.66;93.01
65716;BME280;63484;52.054;8.518;2022-12-24T07:10:50;99968.31;;;9.62;94.08
65716;BME280;63484;52.054;8.518;2022-12-24T07:15:58;99985.19;;;9.71;94.66
65716;BME280;63484;52.054;8.518;2022-12-24T07:20:59;99977.84;;;9.63;95.59
65716;BME280;63484;52.054;8.518;2022-12-24T07:26:01;99983.00;;;9.65;95.75
65716;BME280;63484;52.054;8.518;2022-12-24T07:31:02;99987.09;;;9.69;96.05
65716;BME280;63484;52.054;8.518;2022-12-24T07:36:05;99990.44;;;9.71;96.16
65716;BME280;63484;52.054;8.518;2022-12-24T07:41:05;99997.81;;;9.66;97.44
65716;BME280;63484;52.054;8.518;2022-12-24T07:46:05;100011.63;;;9.55;98.65
65716;BME280;63484;52.054;8.518;2022-12-24T07:51:06;100002.84;;;9.69;98.48
65716;BME280;63484;52.054;8.518;2022-12-24T07:56:07;100014.81;;;9.60;97.64
65716;BME280;63484;52.054;8.518;2022-12-24T08:01:07;100002.53;;;9.61;98.10
65716;BME280;63484;52.054;8.518;2022-12-24T08:06:08;100024.88;;;9.66;98.15
65716;BME280;63484;52.054;8.518;2022-12-24T08:11:12;100023.41;;;9.62;98.34
65716;BME280;63484;52.054;8.518;2022-12-24T08:16:12;100030.97;;;9.67;98.90
65716;BME280;63484;52.054;8.518;2022-12-24T08:21:13;100039.50;;;9.70;98.21
65716;BME280;63484;52.054;8.518;2022-12-24T08:26:13;100047.25;;;9.72;97.69
65716;BME280;63484;52.054;8.518;2022-12-24T08:31:13;100050.72;;;9.72;98.47
65716;BME280;63484;52.054;8.518;2022-12-24T08:36:14;100068.38;;;9.83;98.58
65716;BME280;63484;52.054;8.518;2022-12-24T08:41:15;100072.38;;;9.89;98.01
65716;BME280;63484;52.054;8.518;2022-12-24T08:46:15;100083.28;;;9.82;98.86
65716;BME280;63484;52.054;8.518;2022-12-24T08:51:15;100085.63;;;9.87;99.12
65716;BME280;63484;52.054;8.518;2022-12-24T08:56:18;100093.78;;;9.82;99.63
65716;BME280;63484;52.054;8.518;2022-12-24T09:01:19;100091.47;;;9.91;99.36
65716;BME280;63484;52.054;8.518;2022-12-24T09:06:19;100091.03;;;9.84;97.52
65716;BME280;63484;52.054;8.518;2022-12-24T09:11:20;100103.88;;;9.89;97.77
65716;BME280;63484;52.054;8.518;2022-12-24T09:16:21;100110.69;;;9.91;98.91
65716;BME280;63484;52.054;8.518;2022-12-24T09:21:22;100115.22;;;9.89;99.28
65716;BME280;63484;52.054;8.518;2022-12-24T09:26:24;100119.31;;;9.93;99.00
65716;BME280;63484;52.054;8.518;2022-12-24T09:31:24;100133.31;;;10.06;98.63
65716;BME280;63484;52.054;8.518;2022-12-24T09:36:25;100148.69;;;10.25;96.75
65716;BME280;63484;52.054;8.518;2022-12-24T09:42:10;100163.09;;;10.19;96.63
65716;BME280;63484;52.054;8.518;2022-12-24T09:47:28;100175.59;;;10.28;97.24
65716;BME280;63484;52.054;8.518;2022-12-24T09:52:35;100172.47;;;10.36;96.10
65716;BME280;63484;52.054;8.518;2022-12-24T09:57:40;100181.94;;;10.38;96.44
65716;BME280;63484;52.054;8.518;2022-12-24T10:02:40;100185.94;;;10.56;95.21
65716;BME280;63484;52.054;8.518;2022-12-24T10:08:07;100189.09;;;10.61;93.82
65716;BME280;63484;52.054;8.518;2022-12-24T10:13:25;100187.59;;;10.57;93.36
65716;BME280;63484;52.054;8.518;2022-12-24T10:18:40;100200.03;;;10.68;92.72
65716;BME280;63484;52.054;8.518;2022-12-24T10:23:55;100197.09;;;10.72;91.63
65716;BME280;63484;52.054;8.518;2022-12-24T10:29:00;100206.84;;;10.70;93.33
65716;BME280;63484;52.054;8.518;2022-12-24T10:34:02;100210.75;;;10.77;91.12
65716;BME280;63484;52.054;8.518;2022-12-24T10:39:08;100210.66;;;10.79;90.65
65716;BME280;63484;52.054;8.518;2022-12-24T10:44:15;100208.34;;;10.87;89.57
65716;BME280;63484;52.054;8.518;2022-12-24T10:55:22;100219.19;;;10.82;90.26
65716;BME280;63484;52.054;8.518;2022-12-24T11:00:23;100230.84;;;10.78;90.48
65716;BME280;63484;52.054;8.518;2022-12-24T11:05:29;100231.38;;;10.83;89.95
65716;BME280;63484;52.054;8.518;2022-12-24T11:10:34;100244.50;;;10.83;89.54
65716;BME280;63484;52.054;8.518;2022-12-24T11:15:36;100241.88;;;10.71;91.09
65716;BME280;63484;52.054;8.518;2022-12-24T11:20:36;100239.16;;;10.85;90.07
65716;BME280;63484;52.054;8.518;2022-12-24T11:25:39;100241.34;;;10.91;89.53
65716;BME280;63484;52.054;8.518;2022-12-24T11:30:40;100239.56;;;11.16;88.64
65716;BME280;63484;52.054;8.518;2022-12-24T11:35:45;100242.13;;;11.42;87.76
65716;BME280;63484;52.054;8.518;2022-12-24T11:40:49;100239.69;;;11.51;86.52
65716;BME280;63484;52.054;8.518;2022-12-24T11:45:52;100235.03;;;11.55;85.29
65716;BME280;63484;52.054;8.518;2022-12-24T11:55:59;100221.53;;;11.36;85.11
65716;BME280;63484;52.054;8.518;2022-12-24T12:01:16;100239.00;;;11.24;84.88
65716;BME280;63484;52.054;8.518;2022-12-24T12:06:25;100235.75;;;11.20;85.85
65716;BME280;63484;52.054;8.518;2022-12-24T12:11:27;100243.94;;;11.29;84.54
65716;BME280;63484;52.054;8.518;2022-12-24T12:16:59;100244.00;;;11.03;85.98
65716;BME280;63484;52.054;8.518;2022-12-24T12:22:13;100248.59;;;11.12;85.99
65716;BME280;63484;52.054;8.518;2022-12-24T12:27:34;100257.34;;;11.00;86.44
65716;BME280;63484;52.054;8.518;2022-12-24T12:32:56;100266.91;;;11.27;85.09
65716;BME280;63484;52.054;8.518;2022-12-24T12:38:08;100268.13;;;11.46;84.34
65716;BME280;63484;52.054;8.518;2022-12-24T12:43:31;100275.97;;;11.23;84.52
65716;BME280;63484;52.054;8.518;2022-12-24T12:59:41;100297.00;;;11.23;84.34
65716;BME280;63484;52.054;8.518;2022-12-24T13:05:14;100288.63;;;10.92;85.96
65716;BME280;63484;52.054;8.518;2022-12-24T13:10:44;100294.72;;;11.05;85.61
65716;BME280;63484;52.054;8.518;2022-12-24T13:21:28;100297.19;;;10.69;85.36
65716;BME280;63484;52.054;8.518;2022-12-24T13:26:29;100298.75;;;10.59;85.34
65716;BME280;63484;52.054;8.518;2022-12-24T13:31:29;100311.38;;;10.54;85.20
65716;BME280;63484;52.054;8.518;2022-12-24T13:37:00;100313.03;;;10.55;85.06
65716;BME280;63484;52.054;8.518;2022-12-24T13:42:01;100311.22;;;10.43;85.50
65716;BME280;63484;52.054;8.518;2022-12-24T13:47:18;100320.91;;;10.55;84.77
65716;BME280;63484;52.054;8.518;2022-12-24T13:52:23;100338.09;;;10.34;85.96
65716;BME280;63484;52.054;8.518;2022-12-24T14:02:37;100359.41;;;10.30;86.81
65716;BME280;63484;52.054;8.518;2022-12-24T14:07:44;100353.75;;;10.62;83.81
65716;BME280;63484;52.054;8.518;2022-12-24T14:12:48;100360.31;;;10.69;83.07
65716;BME280;63484;52.054;8.518;2022-12-24T14:17:48;100366.81;;;10.76;82.51
65716;BME280;63484;52.054;8.518;2022-12-24T14:22:49;100360.97;;;10.85;82.59
65716;BME280;63484;52.054;8.518;2022-12-24T14:28:03;100377.41;;;10.62;84.45
65716;BME280;63484;52.054;8.518;2022-12-24T14:33:04;100377.41;;;10.62;85.54
65716;BME280;63484;52.054;8.518;2022-12-24T14:38:07;100398.47;;;10.75;85.53
65716;BME280;63484;52.054;8.518;2022-12-24T14:43:29;100399.00;;;10.67;85.08
65716;BME280;63484;52.054;8.518;2022-12-24T14:59:17;100414.38;;;10.47;86.35
65716;BME280;63484;52.054;8.518;2022-12-24T15:04:18;100427.13;;;10.53;85.81
65716;BME280;63484;52.054;8.518;2022-12-24T15:09:30;100441.69;;;10.44;86.70
65716;BME280;63484;52.054;8.518;2022-12-24T15:14:40;100441.59;;;10.46;86.00
65716;BME280;63484;52.054;8.518;2022-12-24T15:19:44;100455.22;;;10.38;86.52
65716;BME280;63484;52.054;8.518;2022-12-24T15:24:46;100467.72;;;10.35;87.02
65716;BME280;63484;52.054;8.518;2022-12-24T15:29:50;100465.78;;;10.24;87.58
65716;BME280;63484;52.054;8.518;2022-12-24T15:34:53;100468.66;;;10.34;85.67
65716;BME280;63484;52.054;8.518;2022-12-24T15:45:15;100475.06;;;10.16;86.62
65716;BME280;63484;52.054;8.518;2022-12-24T15:50:27;100491.81;;;9.99;86.93
65716;BME280;63484;52.054;8.518;2022-12-24T15:55:38;100488.72;;;9.93;87.86
65716;BME280;63484;52.054;8.518;2022-12-24T16:00:40;100493.50;;;9.86;87.56
65716;BME280;63484;52.054;8.518;2022-12-24T16:05:41;100502.28;;;9.71;88.36
65716;BME280;63484;52.054;8.518;2022-12-24T16:10:48;100513.19;;;9.79;87.16
65716;BME280;63484;52.054;8.518;2022-12-24T16:16:10;100512.50;;;9.61;87.50
65716;BME280;63484;52.054;8.518;2022-12-24T16:21:19;100524.59;;;9.64;86.99
65716;BME280;63484;52.054;8.518;2022-12-24T16:26:22;100531.31;;;9.54;87.66
65716;BME280;63484;52.054;8.518;2022-12-24T16:31:38;100540.97;;;9.53;87.88
65716;BME280;63484;52.054;8.518;2022-12-24T16:36:45;100544.75;;;9.34;88.73
65716;BME280;63484;52.054;8.518;2022-12-24T16:41:46;100541.13;;;9.36;88.23
65716;BME280;63484;52.054;8.518;2022-12-24T16:47:05;100550.41;;;9.42;88.60
65716;BME280;63484;52.054;8.518;2022-12-24T16:52:30;100553.47;;;9.34;88.02
65716;BME280;63484;52.054;8.518;2022-12-24T16:57:32;100555.88;;;9.23;88.23
65716;BME280;63484;52.054;8.518;2022-12-24T17:02:33;100567.91;;;9.12;88.45
65716;BME280;63484;52.054;8.518;2022-12-24T17:07:33;100573.56;;;8.89;89.26
65716;BME280;63484;52.054;8.518;2022-12-24T17:12:34;100571.47;;;8.80;89.69
65716;BME280;63484;52.054;8.518;2022-12-24T17:17:34;100570.63;;;8.79;89.28
65716;BME280;63484;52.054;8.518;2022-12-24T17:22:35;100581.69;;;8.69;90.53
65716;BME280;63484;52.054;8.518;2022-12-24T17:27:35;100586.44;;;8.62;90.50
65716;BME280;63484;52.054;8.518;2022-12-24T17:32:36;100584.97;;;8.57;90.58
65716;BME280;63484;52.054;8.518;2022-12-24T17:37:36;100581.66;;;8.37;90.79
65716;BME280;63484;52.054;8.518;2022-12-24T17:42:37;100596.06;;;8.29;92.04
65716;BME280;63484;52.054;8.518;2022-12-24T17:47:37;100597.69;;;8.31;91.54
65716;BME280;63484;52.054;8.518;2022-12-24T17:52:37;100590.50;;;8.35;90.46
65716;BME280;63484;52.054;8.518;2022-12-24T17:57:37;100602.69;;;8.36;90.94
65716;BME280;63484;52.054;8.518;2022-12-24T18:02:38;100596.91;;;8.29;91.00
65716;BME280;63484;52.054;8.518;2022-12-24T18:07:38;100606.00;;;8.39;90.31
65716;BME280;63484;52.054;8.518;2022-12-24T18:12:39;100613.72;;;8.25;91.33
65716;BME280;63484;52.054;8.518;2022-12-24T18:17:39;100617.09;;;8.10;91.79
65716;BME280;63484;52.054;8.518;2022-12-24T18:22:39;100608.78;;;8.02;91.56
65716;BME280;63484;52.054;8.518;2022-12-24T18:27:40;100602.53;;;8.05;91.75
65716;BME280;63484;52.054;8.518;2022-12-24T18:32:40;100609.94;;;7.97;91.51
65716;BME280;63484;52.054;8.518;2022-12-24T18:37:40;100608.09;;;7.99;91.44
65716;BME280;63484;52.054;8.518;2022-12-24T18:42:41;100609.47;;;8.06;90.62
65716;BME280;63484;52.054;8.518;2022-12-24T18:47:41;100604.88;;;8.28;89.47
65716;BME280;63484;52.054;8.518;2022-12-24T18:52:41;100601.31;;;8.12;90.97
65716;BME280;63484;52.054;8.518;2022-12-24T18:57:42;100588.88;;;8.15;90.30
65716;BME280;63484;52.054;8.518;2022-12-24T19:02:42;100597.72;;;7.97;91.16
65716;BME280;63484;52.054;8.518;2022-12-24T19:07:43;100607.72;;;7.89;91.79
65716;BME280;63484;52.054;8.518;2022-12-24T19:12:44;100607.03;;;7.86;91.77
65716;BME280;63484;52.054;8.518;2022-12-24T19:17:44;100618.81;;;7.60;93.12
65716;BME280;63484;52.054;8.518;2022-12-24T19:22:44;100621.44;;;7.60;93.67
65716;BME280;63484;52.054;8.518;2022-12-24T19:27:45;100639.84;;;7.40;94.51
65716;BME280;63484;52.054;8.518;2022-12-24T19:32:45;100644.91;;;7.26;95.29
65716;BME280;63484;52.054;8.518;2022-12-24T19:37:45;100639.59;;;7.09;96.11
65716;BME280;63484;52.054;8.518;2022-12-24T19:42:45;100644.03;;;7.07;97.16
65716;BME280;63484;52.054;8.518;2022-12-24T19:47:50;100644.97;;;7.06;97.85
65716;BME280;63484;52.054;8.518;2022-12-24T19:52:50;100649.50;;;7.02;97.96
65716;BME280;63484;52.054;8.518;2022-12-24T19:57:51;100653.94;;;7.00;98.19
65716;BME280;63484;52.054;8.518;2022-12-24T20:02:51;100651.63;;;6.94;98.35
65716;BME280;63484;52.054;8.518;2022-12-24T20:07:51;100647.66;;;6.86;98.61
65716;BME280;63484;52.054;8.518;2022-12-24T20:12:52;100640.25;;;6.77;98.86
65716;BME280;63484;52.054;8.518;2022-12-24T20:17:52;100654.34;;;6.73;99.56
65716;BME280;63484;52.054;8.518;2022-12-24T20:22:53;100654.69;;;6.65;99.76
65716;BME280;63484;52.054;8.518;2022-12-24T20:27:53;100644.41;;;6.62;100.00
65716;BME280;63484;52.054;8.518;2022-12-24T20:32:55;100650.19;;;6.69;100.00
65716;BME280;63484;52.054;8.518;2022-12-24T20:37:55;100646.16;;;6.62;100.00
65716;BME280;63484;52.054;8.518;2022-12-24T20:42:56;100651.22;;;6.46;100.00
65716;BME280;63484;52.054;8.518;2022-12-24T20:47:56;100644.72;;;6.36;100.00
65716;BME280;63484;52.054;8.518;2022-12-24T20:52:56;100650.44;;;6.24;100.00
65716;BME280;63484;52.054;8.518;2022-12-24T20:57:57;100647.59;;;6.30;100.00
65716;BME280;63484;52.054;8.518;2022-12-24T21:02:57;100674.53;;;6.31;100.00
65716;BME280;63484;52.054;8.518;2022-12-24T21:07:58;100677.13;;;6.31;100.00
65716;BME280;63484;52.054;8.518;2022-12-24T21:12:58;100688.09;;;6.39;100.00
65716;BME280;63484;52.054;8.518;2022-12-24T21:17:59;100690.13;;;6.52;100.00
65716;BME280;63484;52.054;8.518;2022-12-24T21:23:00;100690.16;;;6.71;100.00
65716;BME280;63484;52.054;8.518;2022-12-24T21:28:00;100696.03;;;6.76;100.00
65716;BME280;63484;52.054;8.518;2022-12-24T21:33:01;100686.34;;;6.78;100.00
65716;BME280;63484;52.054;8.518;2022-12-24T21:38:01;100686.91;;;6.84;100.00
65716;BME280;63484;52.054;8.518;2022-12-24T21:43:02;100678.94;;;6.87;100.00
65716;BME280;63484;52.054;8.518;2022-12-24T21:48:02;100687.91;;;6.82;100.00
65716;BME280;63484;52.054;8.518;2022-12-24T21:53:23;100685.31;;;6.82;100.00
65716;BME280;63484;52.054;8.518;2022-12-24T21:58:42;100694.50;;;6.90;100.00
65716;BME280;63484;52.054;8.518;2022-12-24T22:03:43;100685.09;;;6.86;100.00
65716;BME280;63484;52.054;8.518;2022-12-24T22:08:46;100670.97;;;6.90;100.00
65716;BME280;63484;52.054;8.518;2022-12-24T22:14:05;100679.56;;;6.92;100.00
65716;BME280;63484;52.054;8.518;2022-12-24T22:19:05;100666.09;;;6.83;100.00
65716;BME280;63484;52.054;8.518;2022-12-24T22:24:06;100668.13;;;6.76;100.00
65716;BME280;63484;52.054;8.518;2022-12-24T22:29:07;100673.06;;;6.64;100.00
65716;BME280;63484;52.054;8.518;2022-12-24T22:34:07;100670.72;;;6.58;100.00
65716;BME280;63484;52.054;8.518;2022-12-24T22:39:07;100674.16;;;6.58;100.00
65716;BME280;63484;52.054;8.518;2022-12-24T22:44:08;100675.88;;;6.59;100.00
65716;BME280;63484;52.054;8.518;2022-12-24T22:49:09;100650.66;;;6.58;100.00
65716;BME280;63484;52.054;8.518;2022-12-24T22:54:10;100644.97;;;6.69;100.00
65716;BME280;63484;52.054;8.518;2022-12-24T22:59:12;100661.69;;;6.65;100.00
65716;BME280;63484;52.054;8.518;2022-12-24T23:04:13;100666.41;;;6.57;100.00
65716;BME280;63484;52.054;8.518;2022-12-24T23:09:14;100659.13;;;6.45;100.00
65716;BME280;63484;52.054;8.518;2022-12-24T23:14:18;100637.00;;;6.33;100.00
65716;BME280;63484;52.054;8.518;2022-12-24T23:19:38;100636.56;;;6.24;100.00
65716;BME280;63484;52.054;8.518;2022-12-24T23:24:38;100630.63;;;6.20;100.00
65716;BME280;63484;52.054;8.518;2022-12-24T23:29:40;100630.19;;;6.11;100.00
65716;BME280;63484;52.054;8.518;2022-12-24T23:34:40;100636.50;;;6.05;100.00
65716;BME280;63484;52.054;8.518;2022-12-24T23:39:40;100618.38;;;6.02;100.00
65716;BME280;63484;52.054;8.518;2022-12-24T23:44:40;100643.09;;;5.94;100.00
65716;BME280;63484;52.054;8.518;2022-12-24T23:49:41;100647.47;;;5.93;100.00
65716;BME280;63484;52.054;8.518;2022-12-24T23:54:41;100647.16;;;5.79;100.00
65716;BME280;63484;52.054;8.518;2022-12-24T23:59:41;100648.69;;;5.85;100.00
